Time;durP1;ratioP1;P1;durP2;ratioP2;P2;SDS_P1;SDS_P2;PMS_P1;PMS_P2;Temp;Humidity;BMP_temperature;BMP_pressure;BME280_temperature;BME280_humidity;BME280_pressure;Samples;Min_cycle;Max_cycle;Signal;HPM_P1;HPM_P2
2022/03/23 00:00:00;;;;;;;9.05;3.30;;;;;;;;;;5031563;28;20041;-78
2022/03/23 00:02:27;;;;;;;9.63;4.00;;;;;;;;;;5031956;28;20033;-78
2022/03/23 00:04:57;;;;;;;11.57;3.15;;;;;;;;;;5030860;28;20041;-78
2022/03/23 00:07:24;;;;;;;7.90;2.90;;;;;;;;;;5031877;28;20029;-77
2022/03/23 00:09:50;;;;;;;7.53;2.95;;;;;;;;;;5032182;28;20034;-77
2022/03/23 00:12:16;;;;;;;7.05;2.60;;;;;;;;;;5030596;28;20488;-78
2022/03/23 00:14:42;;;;;;;11.30;2.83;;;;;;;;;;5032105;28;20416;-77
2022/03/23 00:17:08;;;;;;;8.70;2.70;;;;;;;;;;5030645;28;20116;-78
2022/03/23 00:19:35;;;;;;;11.13;4.03;;;;;;;;;;5031689;28;20492;-77
2022/03/23 00:22:01;;;;;;;10.32;3.05;;;;;;;;;;5031881;28;20025;-76
2022/03/23 00:24:27;;;;;;;10.10;3.65;;;;;;;;;;5031568;28;20069;-78
2022/03/23 00:26:53;;;;;;;8.80;2.95;;;;;;;;;;5034498;28;20025;-77
2022/03/23 00:29:19;;;;;;;8.93;3.20;;;;;;;;;;5036124;28;20033;-78
2022/03/23 00:31:45;;;;;;;6.95;2.72;;;;;;;;;;5035761;28;20063;-77
2022/03/23 00:34:12;;;;;;;7.10;2.50;;;;;;;;;;5035986;28;20469;-77
2022/03/23 00:36:38;;;;;;;10.10;3.40;;;;;;;;;;5035664;28;20021;-78
2022/03/23 00:39:05;;;;;;;12.02;2.55;;;;;;;;;;5035625;28;20040;-76
2022/03/23 00:41:31;;;;;;;7.68;2.90;;;;;;;;;;5035545;28;20048;-77
2022/03/23 00:43:57;;;;;;;6.60;2.72;;;;;;;;;;5035404;28;20021;-77
2022/03/23 00:46:24;;;;;;;8.38;2.72;;;;;;;;;;5035572;28;20025;-77
2022/03/23 00:48:50;;;;;;;9.88;3.83;;;;;;;;;;5034264;28;20033;-77
2022/03/23 00:51:16;;;;;;;7.68;3.28;;;;;;;;;;5035591;28;20088;-78
2022/03/23 00:53:42;;;;;;;6.72;2.92;;;;;;;;;;5035206;28;20033;-75
2022/03/23 00:56:10;;;;;;;8.20;2.38;;;;;;;;;;5035594;28;20025;-78
2022/03/23 00:58:36;;;;;;;9.05;3.50;;;;;;;;;;5035004;28;20108;-77
2022/03/23 01:01:02;;;;;;;9.27;3.17;;;;;;;;;;5035316;28;20041;-79
2022/03/23 01:03:28;;;;;;;13.52;3.70;;;;;;;;;;5033927;28;20032;-77
2022/03/23 01:05:55;;;;;;;10.73;3.30;;;;;;;;;;5035176;28;20532;-78
2022/03/23 01:08:21;;;;;;;9.45;3.63;;;;;;;;;;5035378;28;20025;-79
2022/03/23 01:10:48;;;;;;;9.07;3.92;;;;;;;;;;5035111;28;20108;-77
2022/03/23 01:13:14;;;;;;;11.63;3.50;;;;;;;;;;5035082;28;20397;-77
2022/03/23 01:15:40;;;;;;;8.23;2.50;;;;;;;;;;5034953;28;20052;-77
2022/03/23 01:18:06;;;;;;;11.90;2.85;;;;;;;;;;5035155;28;20097;-77
2022/03/23 01:20:33;;;;;;;6.93;2.85;;;;;;;;;;5034990;28;20144;-77
2022/03/23 01:22:59;;;;;;;7.57;2.47;;;;;;;;;;5034848;28;20029;-78
2022/03/23 01:25:25;;;;;;;9.60;2.53;;;;;;;;;;5034899;28;20049;-77
2022/03/23 01:27:51;;;;;;;8.27;3.35;;;;;;;;;;5034632;28;20026;-77
2022/03/23 01:30:18;;;;;;;6.57;2.50;;;;;;;;;;5034971;28;20033;-77
2022/03/23 01:32:44;;;;;;;8.23;2.72;;;;;;;;;;5034559;28;20485;-78
2022/03/23 01:35:11;;;;;;;6.97;2.67;;;;;;;;;;5034852;28;20025;-77
2022/03/23 01:37:40;;;;;;;5.32;1.77;;;;;;;;;;5034773;28;20021;-78
2022/03/23 01:40:08;;;;;;;7.03;3.05;;;;;;;;;;5034782;28;20022;-78
2022/03/23 01:42:34;;;;;;;7.00;3.00;;;;;;;;;;5034603;28;20436;-77
2022/03/23 01:45:00;;;;;;;8.88;3.28;;;;;;;;;;5034191;28;20044;-78
2022/03/23 01:47:26;;;;;;;6.10;2.60;;;;;;;;;;5034554;28;20025;-78
2022/03/23 01:49:54;;;;;;;5.88;2.40;;;;;;;;;;5034365;28;20083;-78
2022/03/23 01:52:23;;;;;;;5.05;1.75;;;;;;;;;;5034512;28;20022;-76
2022/03/23 01:54:49;;;;;;;4.80;2.20;;;;;;;;;;5034079;28;20060;-78
2022/03/23 01:57:15;;;;;;;5.88;1.77;;;;;;;;;;5034442;28;20033;-76
2022/03/23 01:59:42;;;;;;;5.63;2.20;;;;;;;;;;5034164;28;20377;-78
2022/03/23 02:02:09;;;;;;;8.10;1.95;;;;;;;;;;5034249;28;20053;-77
2022/03/23 02:04:36;;;;;;;6.80;2.15;;;;;;;;;;5034167;28;20030;-76
2022/03/23 02:07:03;;;;;;;8.10;2.60;;;;;;;;;;5033717;28;20030;-77
2022/03/23 02:09:29;;;;;;;10.00;3.13;;;;;;;;;;5034119;28;20083;-78
2022/03/23 02:11:56;;;;;;;8.43;2.97;;;;;;;;;;5033608;28;20029;-77
2022/03/23 02:14:22;;;;;;;5.80;2.53;;;;;;;;;;5034140;28;20022;-77
2022/03/23 02:16:51;;;;;;;8.05;2.15;;;;;;;;;;5033744;28;20454;-77
2022/03/23 02:19:18;;;;;;;6.72;2.63;;;;;;;;;;5032560;28;20033;-77
2022/03/23 02:21:45;;;;;;;6.13;2.15;;;;;;;;;;5033788;28;20048;-77
2022/03/23 02:24:11;;;;;;;8.13;2.72;;;;;;;;;;5033680;28;20487;-78
2022/03/23 02:26:38;;;;;;;5.35;1.45;;;;;;;;;;5033701;28;20029;-77
2022/03/23 02:29:05;;;;;;;7.78;2.25;;;;;;;;;;5033356;28;20362;-77
2022/03/23 02:31:31;;;;;;;4.80;2.15;;;;;;;;;;5033753;28;20496;-78
2022/03/23 02:33:57;;;;;;;4.70;1.80;;;;;;;;;;5033127;28;20065;-77
2022/03/23 02:36:23;;;;;;;5.43;2.00;;;;;;;;;;5033430;28;20100;-77
2022/03/23 02:38:50;;;;;;;7.18;2.80;;;;;;;;;;5033462;28;20036;-77
2022/03/23 02:41:16;;;;;;;6.72;2.95;;;;;;;;;;5033487;28;20373;-76
2022/03/23 02:43:42;;;;;;;4.97;2.20;;;;;;;;;;5033432;28;20034;-77
2022/03/23 02:46:14;;;;;;;4.18;1.85;;;;;;;;;;5033220;28;20037;-78
2022/03/23 02:48:41;;;;;;;6.13;2.08;;;;;;;;;;5033091;28;20105;-77
2022/03/23 02:51:07;;;;;;;4.15;2.05;;;;;;;;;;5033333;28;20083;-77
2022/03/23 03:02:15;;;;;;;5.78;2.35;;;;;;;;;;5033038;28;20040;-78
2022/03/23 03:04:42;;;;;;;5.82;1.42;;;;;;;;;;5032676;28;20044;-77
2022/03/23 03:07:08;;;;;;;4.72;1.83;;;;;;;;;;5032891;28;20087;-76
2022/03/23 03:09:34;;;;;;;5.30;1.60;;;;;;;;;;5033041;28;20477;-77
2022/03/23 03:12:01;;;;;;;3.08;1.27;;;;;;;;;;5032779;28;20133;-76
2022/03/23 03:14:29;;;;;;;5.38;1.25;;;;;;;;;;5031668;28;20025;-78
2022/03/23 03:16:56;;;;;;;5.18;1.77;;;;;;;;;;5031462;28;20025;-77
2022/03/23 03:19:25;;;;;;;6.70;1.60;;;;;;;;;;5032854;28;20029;-77
2022/03/23 03:21:51;;;;;;;5.88;1.55;;;;;;;;;;5014983;28;20144;-77
2022/03/23 03:24:20;;;;;;;4.28;1.15;;;;;;;;;;5032716;28;20025;-75
2022/03/23 03:26:47;;;;;;;3.97;1.25;;;;;;;;;;5032340;28;20111;-77
2022/03/23 03:29:14;;;;;;;4.00;1.38;;;;;;;;;;5032754;28;20025;-78
2022/03/23 03:31:41;;;;;;;4.32;1.40;;;;;;;;;;5032833;28;20039;-79
2022/03/23 03:34:08;;;;;;;7.55;2.00;;;;;;;;;;5032457;28;20469;-82
2022/03/23 03:36:34;;;;;;;4.80;1.50;;;;;;;;;;5032500;28;20033;-77
2022/03/23 03:39:00;;;;;;;4.85;1.20;;;;;;;;;;5032087;28;20057;-78
2022/03/23 03:41:26;;;;;;;3.63;1.15;;;;;;;;;;5032549;28;20181;-77
2022/03/23 03:43:52;;;;;;;3.97;1.70;;;;;;;;;;5032077;28;20519;-76
2022/03/23 03:46:18;;;;;;;7.25;1.20;;;;;;;;;;5032332;28;20029;-77
2022/03/23 03:48:45;;;;;;;5.03;1.20;;;;;;;;;;5032297;28;20419;-77
2022/03/23 03:51:11;;;;;;;5.65;1.45;;;;;;;;;;5032127;28;20030;-76
2022/03/23 03:53:37;;;;;;;4.22;1.40;;;;;;;;;;5032224;28;20049;-77
2022/03/23 03:56:04;;;;;;;3.95;1.10;;;;;;;;;;5031812;28;20030;-77
2022/03/23 03:58:30;;;;;;;3.83;1.48;;;;;;;;;;5032166;28;20041;-76
2022/03/23 04:00:56;;;;;;;4.57;1.85;;;;;;;;;;5031134;28;20064;-76
2022/03/23 04:03:22;;;;;;;5.93;1.65;;;;;;;;;;5032123;28;20465;-79
2022/03/23 04:05:48;;;;;;;4.22;1.40;;;;;;;;;;5032223;28;20033;-77
2022/03/23 04:08:14;;;;;;;5.07;1.52;;;;;;;;;;5031760;28;20090;-78
2022/03/23 04:10:40;;;;;;;2.05;1.08;;;;;;;;;;5032192;28;20117;-79
2022/03/23 04:13:10;;;;;;;4.32;1.77;;;;;;;;;;5031788;28;20445;-76
2022/03/23 04:15:36;;;;;;;3.67;1.48;;;;;;;;;;5032024;28;20025;-77
2022/03/23 04:18:03;;;;;;;3.15;1.20;;;;;;;;;;5031765;28;20037;-76
2022/03/23 04:20:30;;;;;;;5.25;1.55;;;;;;;;;;5032092;28;20025;-78
2022/03/23 04:22:56;;;;;;;3.63;1.40;;;;;;;;;;5031988;28;20036;-78
2022/03/23 04:25:22;;;;;;;5.82;1.60;;;;;;;;;;5031709;28;20040;-77
2022/03/23 04:27:52;;;;;;;4.70;1.52;;;;;;;;;;5031807;28;20049;-78
2022/03/23 04:30:19;;;;;;;6.15;1.40;;;;;;;;;;5031566;28;20030;-78
2022/03/23 04:32:46;;;;;;;6.50;1.85;;;;;;;;;;5031860;28;20033;-79
2022/03/23 04:35:12;;;;;;;3.47;1.10;;;;;;;;;;5031442;28;20021;-78
2022/03/23 04:37:39;;;;;;;5.13;1.60;;;;;;;;;;5031850;28;20079;-78
2022/03/23 04:40:07;;;;;;;6.28;1.40;;;;;;;;;;5031826;28;20112;-78
2022/03/23 04:42:33;;;;;;;5.25;1.67;;;;;;;;;;5031712;28;20073;-77
2022/03/23 04:45:00;;;;;;;4.28;1.30;;;;;;;;;;5031560;28;20128;-76
2022/03/23 04:47:26;;;;;;;5.07;1.33;;;;;;;;;;5031389;28;20025;-77
2022/03/23 04:49:52;;;;;;;4.45;1.08;;;;;;;;;;5031885;28;20079;-78
2022/03/23 04:52:18;;;;;;;3.45;1.27;;;;;;;;;;5031337;28;20044;-76
2022/03/23 04:54:45;;;;;;;9.15;1.67;;;;;;;;;;5031645;28;20512;-77
2022/03/23 04:57:11;;;;;;;4.80;1.45;;;;;;;;;;5031259;28;20033;-77
2022/03/23 04:59:37;;;;;;;4.03;1.30;;;;;;;;;;5031646;28;20080;-77
2022/03/23 05:02:03;;;;;;;9.43;2.63;;;;;;;;;;5031396;28;20022;-79
2022/03/23 05:04:30;;;;;;;9.13;4.07;;;;;;;;;;5031393;28;20045;-77
2022/03/23 05:06:57;;;;;;;5.45;1.80;;;;;;;;;;5031679;28;20021;-78
2022/03/23 05:09:23;;;;;;;5.78;2.60;;;;;;;;;;5031048;28;20037;-78
2022/03/23 05:11:49;;;;;;;7.30;2.08;;;;;;;;;;5031871;28;20030;-76
2022/03/23 05:14:15;;;;;;;4.45;1.35;;;;;;;;;;5034255;28;20029;-75
2022/03/23 05:16:42;;;;;;;7.50;2.28;;;;;;;;;;5034430;28;20034;-77
2022/03/23 05:19:09;;;;;;;8.90;1.70;;;;;;;;;;5035281;28;20030;-75
2022/03/23 05:21:35;;;;;;;5.60;1.67;;;;;;;;;;5035108;28;20079;-78
2022/03/23 05:24:01;;;;;;;4.93;1.40;;;;;;;;;;5035410;28;20030;-79
2022/03/23 05:26:27;;;;;;;6.25;2.55;;;;;;;;;;5034915;28;20029;-79
2022/03/23 05:28:53;;;;;;;5.90;1.50;;;;;;;;;;5035267;28;20029;-78
2022/03/23 05:31:19;;;;;;;3.97;1.75;;;;;;;;;;5035124;28;20033;-78
2022/03/23 05:33:45;;;;;;;4.22;1.83;;;;;;;;;;5035213;28;20060;-77
2022/03/23 05:36:12;;;;;;;4.30;1.60;;;;;;;;;;5035037;28;20028;-77
2022/03/23 05:38:39;;;;;;;6.45;2.42;;;;;;;;;;5034127;28;20048;-78
2022/03/23 05:41:05;;;;;;;4.53;1.65;;;;;;;;;;5034935;28;20029;-79
2022/03/23 05:43:31;;;;;;;3.30;1.60;;;;;;;;;;5034831;28;20032;-78
2022/03/23 05:46:00;;;;;;;4.40;1.65;;;;;;;;;;5034669;28;20029;-77
2022/03/23 05:48:26;;;;;;;5.43;1.58;;;;;;;;;;5033946;28;20044;-77
2022/03/23 05:50:52;;;;;;;4.85;2.10;;;;;;;;;;5034780;28;20040;-78
2022/03/23 05:53:18;;;;;;;6.40;2.08;;;;;;;;;;5033806;28;20064;-77
2022/03/23 05:55:44;;;;;;;5.05;1.95;;;;;;;;;;5034067;28;20044;-78
2022/03/23 05:58:10;;;;;;;8.82;2.78;;;;;;;;;;5018011;28;20065;-77
2022/03/23 06:00:37;;;;;;;6.75;2.50;;;;;;;;;;5014191;28;20113;-76
2022/03/23 06:03:03;;;;;;;5.10;2.17;;;;;;;;;;5014530;28;20042;-77
2022/03/23 06:05:29;;;;;;;6.60;3.00;;;;;;;;;;5014099;28;20049;-77
2022/03/23 06:07:55;;;;;;;7.82;2.40;;;;;;;;;;5014606;28;20474;-79
2022/03/23 06:10:22;;;;;;;7.05;3.13;;;;;;;;;;5014491;28;20448;-77
2022/03/23 06:12:48;;;;;;;6.35;1.90;;;;;;;;;;5014238;28;20462;-77
2022/03/23 06:15:14;;;;;;;9.63;4.13;;;;;;;;;;5014397;28;20069;-78
2022/03/23 06:17:40;;;;;;;6.22;2.60;;;;;;;;;;5014127;28;20026;-77
2022/03/23 06:20:07;;;;;;;9.48;3.67;;;;;;;;;;5014236;28;20026;-76
2022/03/23 06:22:34;;;;;;;7.60;3.63;;;;;;;;;;5029558;28;20523;-77
2022/03/23 06:25:00;;;;;;;8.25;3.50;;;;;;;;;;5032390;28;20545;-77
2022/03/23 06:27:26;;;;;;;9.93;4.32;;;;;;;;;;5033794;28;20072;-77
2022/03/23 06:29:52;;;;;;;10.60;5.38;;;;;;;;;;5033495;28;20491;-79
2022/03/23 06:32:18;;;;;;;9.52;3.75;;;;;;;;;;5031256;28;20037;-79
2022/03/23 06:34:44;;;;;;;10.40;4.47;;;;;;;;;;5031600;28;20026;-75
2022/03/23 06:37:11;;;;;;;7.20;2.88;;;;;;;;;;5030967;28;20112;-78
2022/03/23 06:39:37;;;;;;;7.20;3.13;;;;;;;;;;5032199;28;20029;-76
2022/03/23 06:42:03;;;;;;;7.97;2.45;;;;;;;;;;5028358;28;20033;-79
2022/03/23 06:44:29;;;;;;;7.72;3.53;;;;;;;;;;5032263;28;20084;-78
2022/03/23 06:46:55;;;;;;;8.25;4.18;;;;;;;;;;5032434;28;20116;-77
2022/03/23 06:49:21;;;;;;;6.68;2.58;;;;;;;;;;5031750;28;20029;-78
2022/03/23 06:51:47;;;;;;;6.15;3.13;;;;;;;;;;5031855;28;20044;-78
2022/03/23 06:57:17;;;;;;;8.18;4.68;;;;;;;;;;5031405;28;20053;-79
2022/03/23 06:59:43;;;;;;;7.78;3.53;;;;;;;;;;5031908;28;20159;-79
2022/03/23 07:02:10;;;;;;;8.80;4.93;;;;;;;;;;5031058;28;20500;-76
2022/03/23 07:04:36;;;;;;;9.63;4.25;;;;;;;;;;5031942;28;20061;-77
2022/03/23 07:07:03;;;;;;;13.73;3.83;;;;;;;;;;5030697;28;20715;-78
2022/03/23 07:09:31;;;;;;;5.63;3.38;;;;;;;;;;5030475;28;20037;-78
2022/03/23 07:11:58;;;;;;;5.80;2.65;;;;;;;;;;5012723;28;20528;-78
2022/03/23 07:14:25;;;;;;;13.38;3.10;;;;;;;;;;5031940;28;20034;-76
2022/03/23 07:16:51;;;;;;;8.05;3.28;;;;;;;;;;5030104;28;20045;-78
2022/03/23 07:19:17;;;;;;;5.32;2.35;;;;;;;;;;5031471;28;20041;-80
2022/03/23 07:21:44;;;;;;;5.82;2.10;;;;;;;;;;5031231;28;20033;-76
2022/03/23 07:24:11;;;;;;;9.55;3.30;;;;;;;;;;5032018;28;20048;-78
2022/03/23 07:26:37;;;;;;;6.65;2.75;;;;;;;;;;5031254;28;20025;-78
2022/03/23 07:29:03;;;;;;;8.32;4.47;;;;;;;;;;5031548;28;20104;-78
2022/03/23 07:31:29;;;;;;;13.85;3.80;;;;;;;;;;5029999;28;20026;-78
2022/03/23 07:33:57;;;;;;;5.60;2.08;;;;;;;;;;5031494;28;20029;-81
2022/03/23 07:36:24;;;;;;;5.65;1.77;;;;;;;;;;5031174;28;20033;-82
2022/03/23 07:38:50;;;;;;;4.57;2.10;;;;;;;;;;5031337;28;20400;-84
2022/03/23 07:41:16;;;;;;;6.88;3.13;;;;;;;;;;5031047;28;20512;-77
2022/03/23 07:43:43;;;;;;;7.60;2.95;;;;;;;;;;5031479;28;20026;-78
2022/03/23 07:46:09;;;;;;;8.85;3.35;;;;;;;;;;5031147;28;20519;-77
2022/03/23 07:48:35;;;;;;;3.92;1.75;;;;;;;;;;5030780;28;20104;-76
2022/03/23 07:51:01;;;;;;;6.30;3.30;;;;;;;;;;5031359;28;20128;-76
2022/03/23 07:53:27;;;;;;;16.42;5.65;;;;;;;;;;5031195;28;20435;-76
2022/03/23 07:55:54;;;;;;;37.40;13.80;;;;;;;;;;5030548;28;20021;-76
2022/03/23 07:58:21;;;;;;;14.63;5.68;;;;;;;;;;5030876;28;20488;-77
2022/03/23 08:00:48;;;;;;;8.38;3.13;;;;;;;;;;5030637;28;20057;-79
2022/03/23 08:03:14;;;;;;;4.45;2.47;;;;;;;;;;5030864;28;20489;-77
2022/03/23 08:05:42;;;;;;;4.88;2.67;;;;;;;;;;5031137;28;20481;-76
2022/03/23 08:08:09;;;;;;;8.18;4.10;;;;;;;;;;5030525;28;20053;-75
2022/03/23 08:10:36;;;;;;;8.27;3.25;;;;;;;;;;5030429;28;20032;-78
2022/03/23 08:13:02;;;;;;;8.55;3.83;;;;;;;;;;5030537;28;20428;-75
2022/03/23 08:15:31;;;;;;;6.07;3.28;;;;;;;;;;5031010;28;20170;-79
2022/03/23 08:17:58;;;;;;;4.63;1.83;;;;;;;;;;5030628;28;20030;-77
2022/03/23 08:20:33;;;;;;;5.78;2.75;;;;;;;;;;5030871;28;20457;-77
2022/03/23 08:23:00;;;;;;;8.05;3.30;;;;;;;;;;5029522;28;20025;-77
2022/03/23 08:25:27;;;;;;;5.53;2.10;;;;;;;;;;5030253;28;20045;-75
2022/03/23 08:27:55;;;;;;;5.15;2.60;;;;;;;;;;5030972;28;20489;-78
2022/03/23 08:30:22;;;;;;;4.68;1.95;;;;;;;;;;5030810;28;20041;-78
2022/03/23 08:32:48;;;;;;;5.65;1.60;;;;;;;;;;5030578;28;20495;-77
2022/03/23 08:35:14;;;;;;;5.82;2.00;;;;;;;;;;5030404;28;20037;-76
2022/03/23 08:37:40;;;;;;;7.18;2.45;;;;;;;;;;5030266;28;20065;-77
2022/03/23 08:40:07;;;;;;;6.72;2.72;;;;;;;;;;5030369;28;20061;-80
2022/03/23 08:42:33;;;;;;;4.22;1.90;;;;;;;;;;5030237;28;20029;-78
2022/03/23 08:44:59;;;;;;;4.60;2.08;;;;;;;;;;5030832;28;20047;-79
2022/03/23 08:47:27;;;;;;;7.45;3.22;;;;;;;;;;5031887;28;20036;-78
2022/03/23 08:49:53;;;;;;;5.47;2.90;;;;;;;;;;5034077;28;20060;-78
2022/03/23 08:52:20;;;;;;;7.78;4.32;;;;;;;;;;5014634;28;20034;-78
2022/03/23 08:54:46;;;;;;;9.50;3.30;;;;;;;;;;5014558;28;20058;-77
2022/03/23 08:57:12;;;;;;;4.78;1.90;;;;;;;;;;5032468;28;20120;-78
2022/03/23 08:59:38;;;;;;;6.63;2.90;;;;;;;;;;5035000;28;20114;-78
2022/03/23 09:02:04;;;;;;;8.55;3.83;;;;;;;;;;5034322;28;20477;-77
2022/03/23 09:04:30;;;;;;;6.53;2.58;;;;;;;;;;5034475;28;20037;-79
2022/03/23 09:06:56;;;;;;;6.57;3.50;;;;;;;;;;5033173;28;20469;-82
2022/03/23 09:09:22;;;;;;;4.63;2.00;;;;;;;;;;5034138;28;20055;-76
2022/03/23 09:11:49;;;;;;;4.07;1.80;;;;;;;;;;5034006;28;20037;-79
2022/03/23 09:14:15;;;;;;;5.55;2.53;;;;;;;;;;5034046;28;20025;-79
2022/03/23 09:16:41;;;;;;;8.63;4.25;;;;;;;;;;5034098;28;20029;-77
2022/03/23 09:19:09;;;;;;;3.50;1.90;;;;;;;;;;5033604;28;20036;-77
2022/03/23 09:21:38;;;;;;;13.35;4.82;;;;;;;;;;5034004;28;20069;-77
2022/03/23 09:24:04;;;;;;;3.97;1.83;;;;;;;;;;5033978;28;20116;-77
2022/03/23 09:26:30;;;;;;;6.38;2.63;;;;;;;;;;5033959;28;20037;-77
2022/03/23 09:28:57;;;;;;;3.83;1.48;;;;;;;;;;5033930;28;20033;-78
2022/03/23 09:31:23;;;;;;;3.58;1.45;;;;;;;;;;5033785;28;20435;-76
2022/03/23 09:33:49;;;;;;;4.55;2.20;;;;;;;;;;5033619;28;20396;-78
2022/03/23 09:37:47;;;;;;;8.68;3.13;;;;;;;;;;5033628;28;20044;-77
2022/03/23 09:39:09;;;;;;;4.45;1.65;;;;;;;;;;5033276;28;20030;-75
2022/03/23 09:41:35;;;;;;;4.38;1.67;;;;;;;;;;5031882;28;20131;-77
2022/03/23 09:44:01;;;;;;;4.22;2.75;;;;;;;;;;5033492;28;20488;-77
2022/03/23 09:46:28;;;;;;;3.55;1.90;;;;;;;;;;5032757;28;20034;-77
2022/03/23 09:48:54;;;;;;;8.50;4.47;;;;;;;;;;5033628;28;20029;-76
2022/03/23 09:51:24;;;;;;;9.25;3.95;;;;;;;;;;5030804;28;20037;-77
2022/03/23 09:53:50;;;;;;;8.95;3.05;;;;;;;;;;5032920;28;20489;-76
2022/03/23 09:56:16;;;;;;;5.03;2.10;;;;;;;;;;5031664;28;20036;-77
2022/03/23 09:58:42;;;;;;;11.77;5.55;;;;;;;;;;5032323;28;20039;-78
2022/03/23 10:01:21;;;;;;;6.60;2.25;;;;;;;;;;5025382;28;20045;-76
2022/03/23 10:04:06;;;;;;;4.18;1.60;;;;;;;;;;5032955;28;20108;-76
2022/03/23 10:06:32;;;;;;;5.18;2.28;;;;;;;;;;5030430;28;20025;-78
2022/03/23 10:09:17;;;;;;;6.90;4.18;;;;;;;;;;5033210;28;20053;-77
2022/03/23 10:11:43;;;;;;;;;;;;;;;;;;5032212;28;20041;-75
2022/03/23 10:14:28;;;;;;;6.43;2.25;;;;;;;;;;5033185;28;19951;-76
2022/03/23 10:17:12;;;;;;;4.78;1.83;;;;;;;;;;5030536;28;20049;-75
2022/03/23 10:19:38;;;;;;;;;;;;;;;;;;5031692;28;20037;-74
2022/03/23 10:22:09;;;;;;;4.25;1.92;;;;;;;;;;5033045;28;19911;-76
2022/03/23 10:24:35;;;;;;;7.55;2.05;;;;;;;;;;5031558;28;20044;-75
2022/03/23 10:27:23;;;;;;;6.70;2.53;;;;;;;;;;5032928;28;20465;-75
2022/03/23 10:29:52;;;;;;;5.25;2.20;;;;;;;;;;5031500;28;20026;-76
2022/03/23 10:32:22;;;;;;;6.32;2.70;;;;;;;;;;5027670;28;20500;-76
2022/03/23 10:34:52;;;;;;;6.28;3.28;;;;;;;;;;5032492;28;20029;-75
2022/03/23 10:37:37;;;;;;;7.30;2.55;;;;;;;;;;5032383;28;20104;-76
2022/03/23 10:40:07;;;;;;;7.82;3.97;;;;;;;;;;5032688;28;20029;-74
2022/03/23 10:42:34;;;;;;;6.72;2.70;;;;;;;;;;5031701;28;20112;-77
2022/03/23 10:45:06;;;;;;;8.25;3.38;;;;;;;;;;5032290;28;20499;-75
2022/03/23 10:47:32;;;;;;;3.75;1.30;;;;;;;;;;5027785;28;20030;-78
2022/03/23 10:50:17;;;;;;;4.47;2.13;;;;;;;;;;5032055;28;20036;-78
2022/03/23 10:52:49;;;;;;;5.00;2.72;;;;;;;;;;5031914;28;20113;-76
2022/03/23 10:55:16;;;;;;;20.20;3.90;;;;;;;;;;5032281;28;20401;-78
2022/03/23 10:57:42;;;;;;;5.18;2.60;;;;;;;;;;5031576;28;20068;-76
2022/03/23 11:00:10;;;;;;;4.70;1.70;;;;;;;;;;5031599;28;20027;-76
2022/03/23 11:02:49;;;;;;;6.53;2.92;;;;;;;;;;5032148;28;20033;-77
2022/03/23 11:05:34;;;;;;;6.85;2.05;;;;;;;;;;5031572;28;20129;-77
2022/03/23 11:08:00;;;;;;;;;;;;;;;;;;5032306;28;20025;-77
2022/03/23 11:16:06;;;;;;;8.82;3.13;;;;;;;;;;5030590;28;20040;-75
2022/03/23 11:18:32;;;;;;;5.60;2.03;;;;;;;;;;5029398;28;20025;-76
2022/03/23 11:20:58;;;;;;;3.95;1.67;;;;;;;;;;5024224;28;20047;-76
2022/03/23 11:23:30;;;;;;;2.88;1.25;;;;;;;;;;5029278;28;20563;-73
2022/03/23 11:26:03;;;;;;;3.92;2.33;;;;;;;;;;5029917;28;20053;-77
2022/03/23 11:28:31;;;;;;;5.35;2.58;;;;;;;;;;5028590;28;20083;-77
2022/03/23 11:30:58;;;;;;;5.47;3.38;;;;;;;;;;5030521;28;20073;-76
2022/03/23 11:33:26;;;;;;;3.45;1.75;;;;;;;;;;5018983;28;20029;-74
2022/03/23 11:35:53;;;;;;;4.80;1.98;;;;;;;;;;5027395;28;20397;-76
2022/03/23 11:38:20;;;;;;;5.75;2.90;;;;;;;;;;5027955;28;20025;-75
2022/03/23 11:40:47;;;;;;;6.80;3.40;;;;;;;;;;5030837;28;20033;-75
2022/03/23 11:43:13;;;;;;;7.57;3.75;;;;;;;;;;5030519;28;20028;-74
2022/03/23 11:45:41;;;;;;;5.10;3.10;;;;;;;;;;5030720;28;20046;-76
2022/03/23 11:48:32;;;;;;;4.65;2.08;;;;;;;;;;5037723;28;20124;-76
2022/03/23 11:51:14;;;;;;;6.53;3.05;;;;;;;;;;5023518;28;20053;-74
2022/03/23 11:53:40;;;;;;;7.68;2.83;;;;;;;;;;5030164;28;20077;-78
2022/03/23 11:56:06;;;;;;;5.55;2.63;;;;;;;;;;5029998;28;20040;-80
2022/03/23 11:58:34;;;;;;;6.03;2.97;;;;;;;;;;5029811;28;20091;-76
2022/03/23 12:01:11;;;;;;;6.35;1.92;;;;;;;;;;5029704;28;20025;-77
2022/03/23 12:03:57;;;;;;;6.68;2.53;;;;;;;;;;5030828;28;20489;-76
2022/03/23 12:06:43;;;;;;;7.35;2.38;;;;;;;;;;5020918;28;20041;-77
2022/03/23 12:09:10;;;;;;;6.47;2.30;;;;;;;;;;5011402;28;20052;-75
2022/03/23 12:11:45;;;;;;;5.25;2.47;;;;;;;;;;5026728;28;20068;-76
2022/03/23 12:14:31;;;;;;;5.00;2.25;;;;;;;;;;5022181;28;20124;-77
2022/03/23 12:16:57;;;;;;;5.63;2.53;;;;;;;;;;5030235;28;20528;-76
2022/03/23 12:19:42;;;;;;;6.43;2.88;;;;;;;;;;5031278;28;20033;-75
2022/03/23 12:22:07;;;;;;;;;;;;;;;;;;5030211;28;20034;-78
2022/03/23 12:24:52;;;;;;;9.65;3.40;;;;;;;;;;5030536;28;19919;-77
2022/03/23 12:27:18;;;;;;;;;;;;;;;;;;5029440;28;20034;-76
2022/03/23 12:29:46;;;;;;;5.90;2.00;;;;;;;;;;5030595;28;19916;-75
2022/03/23 12:32:14;;;;;;;6.95;2.67;;;;;;;;;;5030389;28;20077;-76
2022/03/23 12:34:42;;;;;;;6.63;2.90;;;;;;;;;;5030996;28;20504;-77
2022/03/23 12:37:09;;;;;;;4.20;1.60;;;;;;;;;;5020638;28;20511;-76
2022/03/23 12:39:38;;;;;;;4.90;1.73;;;;;;;;;;5032060;28;20025;-78
2022/03/23 12:42:23;;;;;;;4.43;2.13;;;;;;;;;;5031171;28;20021;-76
2022/03/23 12:45:04;;;;;;;2.33;1.45;;;;;;;;;;5024688;28;20040;-78
2022/03/23 12:47:31;;;;;;;7.13;2.20;;;;;;;;;;5030967;28;20018;-79
2022/03/23 12:58:24;;;;;;;6.15;2.67;;;;;;;;;;5031568;28;20040;-76
2022/03/23 13:00:51;;;;;;;3.65;1.88;;;;;;;;;;5031612;28;20052;-76
2022/03/23 13:03:18;;;;;;;4.60;2.50;;;;;;;;;;5031600;28;20037;-78
2022/03/23 13:06:03;;;;;;;4.57;1.85;;;;;;;;;;5026810;28;20132;-76
2022/03/23 13:08:30;;;;;;;9.88;5.07;;;;;;;;;;5031217;28;20033;-78
2022/03/23 13:10:59;;;;;;;10.95;3.40;;;;;;;;;;5031424;28;20033;-77
2022/03/23 13:13:26;;;;;;;8.38;4.65;;;;;;;;;;5027451;28;20068;-77
2022/03/23 13:15:52;;;;;;;5.63;2.25;;;;;;;;;;5031347;28;20532;-75
2022/03/23 13:18:24;;;;;;;7.63;3.80;;;;;;;;;;5031774;28;20044;-76
2022/03/23 13:20:51;;;;;;;7.32;3.45;;;;;;;;;;5031087;28;20076;-79
2022/03/23 13:23:20;;;;;;;6.85;2.72;;;;;;;;;;5030396;28;20366;-76
2022/03/23 13:25:47;;;;;;;3.58;1.45;;;;;;;;;;5030601;28;20041;-76
2022/03/23 13:28:14;;;;;;;5.63;2.20;;;;;;;;;;5028793;28;20065;-75
2022/03/23 13:30:42;;;;;;;9.43;1.77;;;;;;;;;;5031291;28;20029;-75
2022/03/23 13:33:10;;;;;;;5.75;1.98;;;;;;;;;;5029404;28;20036;-77
2022/03/23 13:35:55;;;;;;;3.53;1.92;;;;;;;;;;5027127;28;20045;-75
2022/03/23 13:38:24;;;;;;;5.78;2.53;;;;;;;;;;5025811;28;20544;-76
2022/03/23 13:43:35;;;;;;;8.38;4.68;;;;;;;;;;5030903;28;20064;-77
2022/03/23 13:46:01;;;;;;;6.13;2.13;;;;;;;;;;5033984;28;20519;-77
2022/03/23 13:48:33;;;;;;;5.88;2.38;;;;;;;;;;5032820;28;20025;-77
2022/03/23 13:51:00;;;;;;;8.27;3.22;;;;;;;;;;5034007;28;20120;-75
2022/03/23 13:53:26;;;;;;;4.28;2.45;;;;;;;;;;5034419;28;20053;-77
2022/03/23 13:55:53;;;;;;;6.80;4.28;;;;;;;;;;5034929;28;20033;-76
2022/03/23 13:58:21;;;;;;;6.18;2.78;;;;;;;;;;5033102;28;20515;-77
2022/03/23 14:00:50;;;;;;;6.70;3.78;;;;;;;;;;5033448;28;20079;-75
2022/03/23 14:03:23;;;;;;;21.50;5.13;;;;;;;;;;5034057;28;20021;-75
2022/03/23 14:06:08;;;;;;;7.88;2.80;;;;;;;;;;5032728;28;20073;-78
2022/03/23 14:08:34;;;;;;;;;;;;;;;;;;5034005;28;20083;-77
2022/03/23 14:11:00;;;;;;;6.15;4.25;;;;;;;;;;5033163;28;20407;-75
2022/03/23 14:13:26;;;;;;;10.32;4.97;;;;;;;;;;5033198;28;20029;-74
2022/03/23 14:15:57;;;;;;;7.47;3.80;;;;;;;;;;5030953;28;20025;-76
2022/03/23 14:18:24;;;;;;;6.82;3.65;;;;;;;;;;5032369;28;20040;-77
2022/03/23 14:20:57;;;;;;;6.95;4.38;;;;;;;;;;5032328;28;20109;-76
2022/03/23 14:23:28;;;;;;;5.50;2.70;;;;;;;;;;5032430;28;20064;-75
2022/03/23 14:25:54;;;;;;;5.85;2.70;;;;;;;;;;5032343;28;20137;-75
2022/03/23 14:28:22;;;;;;;9.00;5.38;;;;;;;;;;5031824;28;20562;-75
2022/03/23 14:30:49;;;;;;;11.57;5.00;;;;;;;;;;5032251;28;20064;-75
2022/03/23 14:33:20;;;;;;;4.35;2.28;;;;;;;;;;5031823;28;20496;-76
2022/03/23 14:35:46;;;;;;;6.20;4.30;;;;;;;;;;5030935;28;20029;-76
2022/03/23 14:38:14;;;;;;;7.95;5.05;;;;;;;;;;5031834;28;20112;-76
2022/03/23 14:40:46;;;;;;;6.13;3.05;;;;;;;;;;5031536;28;20098;-75
2022/03/23 14:43:31;;;;;;;4.78;2.55;;;;;;;;;;5031650;28;20080;-76
2022/03/23 14:45:58;;;;;;;5.88;3.28;;;;;;;;;;5030905;28;20033;-76
2022/03/23 14:48:30;;;;;;;7.32;3.53;;;;;;;;;;5032232;28;20025;-76
2022/03/23 14:50:57;;;;;;;6.78;3.75;;;;;;;;;;5032914;28;20056;-77
2022/03/23 14:53:27;;;;;;;8.73;4.28;;;;;;;;;;5032686;28;20115;-77
2022/03/23 14:55:54;;;;;;;11.68;4.90;;;;;;;;;;5033215;28;20035;-76
2022/03/23 14:58:23;;;;;;;7.97;5.15;;;;;;;;;;5033475;28;20083;-77
2022/03/23 15:00:50;;;;;;;15.38;5.80;;;;;;;;;;5032959;28;20025;-77
2022/03/23 15:03:17;;;;;;;9.18;4.65;;;;;;;;;;5033015;28;20040;-76
2022/03/23 15:13:58;;;;;;;8.90;5.63;;;;;;;;;;5013224;28;20041;-75
2022/03/23 15:16:24;;;;;;;6.50;4.32;;;;;;;;;;5026098;28;20063;-77
2022/03/23 15:18:50;;;;;;;10.30;6.32;;;;;;;;;;5032252;28;20105;-76
2022/03/23 15:21:19;;;;;;;16.20;9.10;;;;;;;;;;5032703;28;20029;-77
2022/03/23 15:23:48;;;;;;;12.32;5.30;;;;;;;;;;5032975;28;20029;-76